Airfield :
LOGIN :

Register | Disclaimer

   EN    FR    IT 

 










Legend :    VFR   Marginal VFR   IFR   Intensive IFR   Very Intensive IFR
Visi :
Ceiling :
>= 8 km
>= 3000ft
5 to 8 km
1000 to 3000 ft
1500m to 5 km
500 to 1000 ft
800 to 1500m
200 to 500 ft
< 800m
< 200 ft
Symbols :   Thunderstorms  Fog  Heavy snow  Heavy precipitations  Wind > 20 kt
SIGMETs :     Misc.  Thunderstorms  Icing  Turbulence  Mountain Waves  Volcanic Ashes






- Airport Elevation : 327 ft
- IATA code : BHX


EGBB - Birmingham

CURRENT METAR :
  • 240920Z 13006KT 1000 R15/1300 SN OVC012 M01/M01 Q0995 R88/4901//

EXPIRED METARs :
  • 240850Z 13006KT 1500 SN SCT013 BKN018 M00/M02 Q0995 RESN
  • 240820Z 14006KT 9999 BKN039 M01/M02 Q0995
  • 240750Z 15007KT 9999 SCT008 M01/M02 Q0995
  • 240720Z 13007KT CAVOK M01/M02 Q0995
  • 240650Z 15005KT CAVOK M01/M02 Q0995

TAF TAF EGBB
Valid from the 24 at 06:00 until the 25 at 06:00 UTC


240455Z 2406/2506 14004KT 9999 FEW025
TEMPO 2408/2417 3000 -SN BKN006
PROB40
TEMPO 2408/2417 0800 SN BKN002
BECMG 2412/2415 36010KT
BECMG 2417/2420 30004KT
PROB40
TEMPO 2417/2506 7000
ATIS : +44 121 780 0910



MET'MAP, your aeronautical weather chart ! - Copyright ORBIFLY December 2007 - Disclaimer

ORBIFLY MET'MAP TEAM :

Programming & Development : Alexandra Zaïnal
Concept & original design : Baudouin d'Aumeries
Assistance for programming : Marc-Olivier Méhu
Technical & hardware support : Manuel Goepfert

Contact : metmap@orbifly.com




SOURCES & CREDITS :

   NOAA